sensor_id;sensor_type;location;lat;lon;timestamp;P1;durP1;ratioP1;P2;durP2;ratioP2
33802;SDS011;20110;53.120;5.786;2022-08-01T00:00:39;9.60;;;5.72;;
33802;SDS011;20110;53.120;5.786;2022-08-01T00:03:05;12.50;;;6.03;;
33802;SDS011;20110;53.120;5.786;2022-08-01T00:05:31;8.93;;;5.22;;
33802;SDS011;20110;53.120;5.786;2022-08-01T00:07:57;7.60;;;4.65;;
33802;SDS011;20110;53.120;5.786;2022-08-01T00:10:23;7.18;;;4.60;;
33802;SDS011;20110;53.120;5.786;2022-08-01T00:12:49;6.47;;;5.10;;
33802;SDS011;20110;53.120;5.786;2022-08-01T00:15:16;14.30;;;5.18;;
33802;SDS011;20110;53.120;5.786;2022-08-01T00:17:42;9.32;;;5.13;;
33802;SDS011;20110;53.120;5.786;2022-08-01T00:20:11;6.10;;;5.40;;
33802;SDS011;20110;53.120;5.786;2022-08-01T00:22:39;8.93;;;6.07;;
33802;SDS011;20110;53.120;5.786;2022-08-01T00:25:05;13.63;;;5.97;;
33802;SDS011;20110;53.120;5.786;2022-08-01T00:27:31;17.70;;;6.53;;
33802;SDS011;20110;53.120;5.786;2022-08-01T00:29:57;10.60;;;6.10;;
33802;SDS011;20110;53.120;5.786;2022-08-01T00:32:23;11.23;;;5.70;;
33802;SDS011;20110;53.120;5.786;2022-08-01T00:34:49;11.10;;;6.53;;
33802;SDS011;20110;53.120;5.786;2022-08-01T00:37:15;15.52;;;5.63;;
33802;SDS011;20110;53.120;5.786;2022-08-01T00:39:41;11.38;;;5.68;;
33802;SDS011;20110;53.120;5.786;2022-08-01T00:42:08;12.02;;;5.68;;
33802;SDS011;20110;53.120;5.786;2022-08-01T00:44:36;11.70;;;5.68;;
33802;SDS011;20110;53.120;5.786;2022-08-01T00:47:03;17.08;;;6.30;;
33802;SDS011;20110;53.120;5.786;2022-08-01T00:49:29;13.23;;;5.70;;
33802;SDS011;20110;53.120;5.786;2022-08-01T00:51:55;12.95;;;5.80;;
33802;SDS011;20110;53.120;5.786;2022-08-01T00:54:23;8.77;;;5.22;;
33802;SDS011;20110;53.120;5.786;2022-08-01T00:56:51;13.82;;;6.00;;
33802;SDS011;20110;53.120;5.786;2022-08-01T00:59:17;11.95;;;5.00;;
33802;SDS011;20110;53.120;5.786;2022-08-01T01:01:46;16.58;;;5.13;;
33802;SDS011;20110;53.120;5.786;2022-08-01T01:04:12;9.20;;;4.90;;
33802;SDS011;20110;53.120;5.786;2022-08-01T01:06:46;9.82;;;5.40;;
33802;SDS011;20110;53.120;5.786;2022-08-01T01:12:12;9.43;;;4.18;;
33802;SDS011;20110;53.120;5.786;2022-08-01T01:20:43;8.38;;;3.92;;
33802;SDS011;20110;53.120;5.786;2022-08-01T01:29:21;9.20;;;3.53;;
33802;SDS011;20110;53.120;5.786;2022-08-01T01:31:52;12.70;;;3.95;;
33802;SDS011;20110;53.120;5.786;2022-08-01T01:34:29;10.50;;;3.70;;
33802;SDS011;20110;53.120;5.786;2022-08-01T01:37:02;16.52;;;3.50;;
33802;SDS011;20110;53.120;5.786;2022-08-01T01:39:34;8.55;;;3.38;;
33802;SDS011;20110;53.120;5.786;2022-08-01T01:42:02;8.70;;;3.05;;
33802;SDS011;20110;53.120;5.786;2022-08-01T01:44:31;3.35;;;2.72;;
33802;SDS011;20110;53.120;5.786;2022-08-01T01:46:58;6.57;;;2.78;;
33802;SDS011;20110;53.120;5.786;2022-08-01T01:49:26;7.00;;;3.75;;
33802;SDS011;20110;53.120;5.786;2022-08-01T01:51:54;5.25;;;2.97;;
33802;SDS011;20110;53.120;5.786;2022-08-01T01:54:25;16.17;;;3.42;;
33802;SDS011;20110;53.120;5.786;2022-08-01T01:56:59;10.38;;;3.30;;
33802;SDS011;20110;53.120;5.786;2022-08-01T01:59:30;10.93;;;3.60;;
33802;SDS011;20110;53.120;5.786;2022-08-01T02:02:01;12.55;;;4.07;;
33802;SDS011;20110;53.120;5.786;2022-08-01T02:04:31;13.05;;;3.88;;
33802;SDS011;20110;53.120;5.786;2022-08-01T02:07:01;18.70;;;3.80;;
33802;SDS011;20110;53.120;5.786;2022-08-01T02:09:28;18.38;;;3.83;;
33802;SDS011;20110;53.120;5.786;2022-08-01T02:11:58;19.98;;;4.40;;
33802;SDS011;20110;53.120;5.786;2022-08-01T02:14:26;15.05;;;3.85;;
33802;SDS011;20110;53.120;5.786;2022-08-01T02:16:54;25.42;;;4.70;;
33802;SDS011;20110;53.120;5.786;2022-08-01T02:19:23;23.20;;;4.30;;
33802;SDS011;20110;53.120;5.786;2022-08-01T02:21:49;16.88;;;4.45;;
33802;SDS011;20110;53.120;5.786;2022-08-01T02:24:31;23.85;;;3.83;;
33802;SDS011;20110;53.120;5.786;2022-08-01T02:27:25;27.75;;;3.95;;
33802;SDS011;20110;53.120;5.786;2022-08-01T02:30:22;15.73;;;4.15;;
33802;SDS011;20110;53.120;5.786;2022-08-01T02:32:53;21.55;;;4.80;;
33802;SDS011;20110;53.120;5.786;2022-08-01T02:35:30;16.73;;;4.07;;
33802;SDS011;20110;53.120;5.786;2022-08-01T02:38:03;19.77;;;4.00;;
33802;SDS011;20110;53.120;5.786;2022-08-01T02:40:34;7.70;;;3.75;;
33802;SDS011;20110;53.120;5.786;2022-08-01T02:43:05;18.45;;;4.63;;
33802;SDS011;20110;53.120;5.786;2022-08-01T02:45:34;13.40;;;3.50;;
33802;SDS011;20110;53.120;5.786;2022-08-01T02:48:06;25.92;;;4.07;;
33802;SDS011;20110;53.120;5.786;2022-08-01T02:50:37;9.38;;;3.65;;
33802;SDS011;20110;53.120;5.786;2022-08-01T02:53:07;12.90;;;3.67;;
33802;SDS011;20110;53.120;5.786;2022-08-01T02:55:38;26.42;;;4.40;;
33802;SDS011;20110;53.120;5.786;2022-08-01T02:58:06;19.80;;;4.00;;
33802;SDS011;20110;53.120;5.786;2022-08-01T03:00:35;10.77;;;3.92;;
33802;SDS011;20110;53.120;5.786;2022-08-01T03:03:02;11.57;;;3.72;;
33802;SDS011;20110;53.120;5.786;2022-08-01T03:05:31;7.70;;;3.45;;
33802;SDS011;20110;53.120;5.786;2022-08-01T03:08:00;17.83;;;3.50;;
33802;SDS011;20110;53.120;5.786;2022-08-01T03:10:28;27.95;;;4.55;;
33802;SDS011;20110;53.120;5.786;2022-08-01T03:12:56;14.43;;;4.30;;
33802;SDS011;20110;53.120;5.786;2022-08-01T03:15:25;12.10;;;4.30;;
33802;SDS011;20110;53.120;5.786;2022-08-01T03:17:55;13.70;;;4.35;;
33802;SDS011;20110;53.120;5.786;2022-08-01T03:20:25;19.15;;;4.10;;
33802;SDS011;20110;53.120;5.786;2022-08-01T03:22:55;14.15;;;4.15;;
33802;SDS011;20110;53.120;5.786;2022-08-01T03:25:25;10.10;;;3.67;;
33802;SDS011;20110;53.120;5.786;2022-08-01T03:27:54;20.05;;;4.28;;
33802;SDS011;20110;53.120;5.786;2022-08-01T03:30:25;19.92;;;3.90;;
33802;SDS011;20110;53.120;5.786;2022-08-01T03:32:53;17.70;;;4.45;;
33802;SDS011;20110;53.120;5.786;2022-08-01T03:35:19;18.02;;;3.92;;
33802;SDS011;20110;53.120;5.786;2022-08-01T03:37:52;16.23;;;4.30;;
33802;SDS011;20110;53.120;5.786;2022-08-01T03:40:21;17.17;;;4.13;;
33802;SDS011;20110;53.120;5.786;2022-08-01T03:42:56;10.65;;;3.15;;
33802;SDS011;20110;53.120;5.786;2022-08-01T03:45:35;25.70;;;3.88;;
33802;SDS011;20110;53.120;5.786;2022-08-01T03:48:06;9.43;;;3.45;;
33802;SDS011;20110;53.120;5.786;2022-08-01T03:50:43;12.30;;;4.90;;
33802;SDS011;20110;53.120;5.786;2022-08-01T03:53:15;12.15;;;3.75;;
33802;SDS011;20110;53.120;5.786;2022-08-01T03:55:47;13.90;;;4.20;;
33802;SDS011;20110;53.120;5.786;2022-08-01T03:58:15;11.35;;;4.05;;
33802;SDS011;20110;53.120;5.786;2022-08-01T04:00:42;14.38;;;3.90;;
33802;SDS011;20110;53.120;5.786;2022-08-01T04:03:09;13.20;;;3.42;;
33802;SDS011;20110;53.120;5.786;2022-08-01T04:05:39;17.27;;;3.30;;
33802;SDS011;20110;53.120;5.786;2022-08-01T04:08:07;12.20;;;2.83;;
33802;SDS011;20110;53.120;5.786;2022-08-01T04:10:34;12.82;;;2.80;;
33802;SDS011;20110;53.120;5.786;2022-08-01T04:13:01;15.18;;;3.45;;
33802;SDS011;20110;53.120;5.786;2022-08-01T04:15:27;14.23;;;3.30;;
33802;SDS011;20110;53.120;5.786;2022-08-01T04:17:53;15.48;;;3.15;;
33802;SDS011;20110;53.120;5.786;2022-08-01T04:20:19;25.75;;;3.78;;
33802;SDS011;20110;53.120;5.786;2022-08-01T04:22:46;13.77;;;3.40;;
33802;SDS011;20110;53.120;5.786;2022-08-01T04:25:14;11.90;;;2.90;;
33802;SDS011;20110;53.120;5.786;2022-08-01T04:27:54;17.40;;;2.78;;
33802;SDS011;20110;53.120;5.786;2022-08-01T04:30:28;23.30;;;3.28;;
33802;SDS011;20110;53.120;5.786;2022-08-01T04:32:59;10.65;;;2.72;;
33802;SDS011;20110;53.120;5.786;2022-08-01T04:35:28;12.93;;;2.45;;
33802;SDS011;20110;53.120;5.786;2022-08-01T04:37:55;24.70;;;3.38;;
33802;SDS011;20110;53.120;5.786;2022-08-01T04:40:22;21.65;;;3.95;;
33802;SDS011;20110;53.120;5.786;2022-08-01T04:42:49;21.40;;;3.35;;
33802;SDS011;20110;53.120;5.786;2022-08-01T04:45:15;13.57;;;3.05;;
33802;SDS011;20110;53.120;5.786;2022-08-01T04:47:42;19.40;;;2.90;;
33802;SDS011;20110;53.120;5.786;2022-08-01T04:50:09;38.10;;;3.78;;
33802;SDS011;20110;53.120;5.786;2022-08-01T04:52:36;15.07;;;2.75;;
33802;SDS011;20110;53.120;5.786;2022-08-01T04:55:03;18.73;;;3.72;;
33802;SDS011;20110;53.120;5.786;2022-08-01T04:57:32;17.67;;;3.20;;
33802;SDS011;20110;53.120;5.786;2022-08-01T05:00:04;24.65;;;4.10;;
33802;SDS011;20110;53.120;5.786;2022-08-01T05:02:31;12.02;;;3.17;;
33802;SDS011;20110;53.120;5.786;2022-08-01T05:04:57;16.83;;;2.28;;
33802;SDS011;20110;53.120;5.786;2022-08-01T05:07:23;13.95;;;2.83;;
33802;SDS011;20110;53.120;5.786;2022-08-01T05:09:49;20.70;;;2.80;;
33802;SDS011;20110;53.120;5.786;2022-08-01T05:12:15;17.65;;;3.03;;
33802;SDS011;20110;53.120;5.786;2022-08-01T05:14:42;16.40;;;3.17;;
33802;SDS011;20110;53.120;5.786;2022-08-01T05:17:08;22.98;;;3.17;;
33802;SDS011;20110;53.120;5.786;2022-08-01T05:19:36;18.98;;;3.55;;
33802;SDS011;20110;53.120;5.786;2022-08-01T05:22:06;19.08;;;3.05;;
33802;SDS011;20110;53.120;5.786;2022-08-01T05:24:34;12.43;;;2.88;;
33802;SDS011;20110;53.120;5.786;2022-08-01T05:27:05;19.67;;;2.50;;
33802;SDS011;20110;53.120;5.786;2022-08-01T05:29:32;13.18;;;3.08;;
33802;SDS011;20110;53.120;5.786;2022-08-01T05:31:59;21.98;;;3.08;;
33802;SDS011;20110;53.120;5.786;2022-08-01T05:34:26;22.98;;;3.25;;
33802;SDS011;20110;53.120;5.786;2022-08-01T05:36:52;20.42;;;3.78;;
33802;SDS011;20110;53.120;5.786;2022-08-01T05:39:18;21.80;;;3.33;;
33802;SDS011;20110;53.120;5.786;2022-08-01T05:41:44;21.00;;;3.65;;
33802;SDS011;20110;53.120;5.786;2022-08-01T05:44:10;14.13;;;3.05;;
33802;SDS011;20110;53.120;5.786;2022-08-01T05:46:36;17.73;;;3.33;;
33802;SDS011;20110;53.120;5.786;2022-08-01T05:49:03;16.17;;;3.47;;
33802;SDS011;20110;53.120;5.786;2022-08-01T05:51:30;19.65;;;3.17;;
33802;SDS011;20110;53.120;5.786;2022-08-01T05:53:57;11.55;;;3.42;;
33802;SDS011;20110;53.120;5.786;2022-08-01T05:56:23;25.50;;;3.67;;
33802;SDS011;20110;53.120;5.786;2022-08-01T05:58:49;26.38;;;3.95;;
33802;SDS011;20110;53.120;5.786;2022-08-01T06:01:17;18.70;;;3.25;;
33802;SDS011;20110;53.120;5.786;2022-08-01T06:03:44;23.13;;;3.67;;
33802;SDS011;20110;53.120;5.786;2022-08-01T06:06:10;22.77;;;3.38;;
33802;SDS011;20110;53.120;5.786;2022-08-01T06:08:39;12.75;;;2.88;;
33802;SDS011;20110;53.120;5.786;2022-08-01T06:11:05;18.00;;;3.13;;
33802;SDS011;20110;53.120;5.786;2022-08-01T06:13:31;13.40;;;3.35;;
33802;SDS011;20110;53.120;5.786;2022-08-01T06:15:57;18.52;;;3.25;;
33802;SDS011;20110;53.120;5.786;2022-08-01T06:18:23;15.90;;;2.88;;
33802;SDS011;20110;53.120;5.786;2022-08-01T06:20:49;13.85;;;3.00;;
33802;SDS011;20110;53.120;5.786;2022-08-01T06:23:15;17.00;;;2.85;;
33802;SDS011;20110;53.120;5.786;2022-08-01T06:25:41;18.13;;;3.15;;
33802;SDS011;20110;53.120;5.786;2022-08-01T06:28:08;13.05;;;2.65;;
33802;SDS011;20110;53.120;5.786;2022-08-01T06:30:34;17.88;;;2.85;;
33802;SDS011;20110;53.120;5.786;2022-08-01T06:33:00;17.15;;;3.25;;
33802;SDS011;20110;53.120;5.786;2022-08-01T06:35:26;16.15;;;3.08;;
33802;SDS011;20110;53.120;5.786;2022-08-01T06:37:54;16.63;;;2.72;;
33802;SDS011;20110;53.120;5.786;2022-08-01T06:40:21;20.55;;;2.60;;
33802;SDS011;20110;53.120;5.786;2022-08-01T06:42:47;14.93;;;2.75;;
33802;SDS011;20110;53.120;5.786;2022-08-01T06:45:13;16.95;;;2.55;;
33802;SDS011;20110;53.120;5.786;2022-08-01T06:47:40;17.75;;;1.98;;
33802;SDS011;20110;53.120;5.786;2022-08-01T06:50:08;13.93;;;2.40;;
33802;SDS011;20110;53.120;5.786;2022-08-01T06:52:36;9.25;;;2.63;;
33802;SDS011;20110;53.120;5.786;2022-08-01T06:55:03;14.65;;;2.67;;
33802;SDS011;20110;53.120;5.786;2022-08-01T06:57:29;8.70;;;2.30;;
33802;SDS011;20110;53.120;5.786;2022-08-01T06:59:55;10.82;;;1.83;;
33802;SDS011;20110;53.120;5.786;2022-08-01T07:02:21;14.38;;;2.58;;
33802;SDS011;20110;53.120;5.786;2022-08-01T07:04:48;14.55;;;2.20;;
33802;SDS011;20110;53.120;5.786;2022-08-01T07:07:14;11.82;;;2.03;;
33802;SDS011;20110;53.120;5.786;2022-08-01T07:09:40;18.95;;;1.88;;
33802;SDS011;20110;53.120;5.786;2022-08-01T07:12:09;12.75;;;1.95;;
33802;SDS011;20110;53.120;5.786;2022-08-01T07:14:34;12.98;;;2.25;;
33802;SDS011;20110;53.120;5.786;2022-08-01T07:17:07;9.38;;;1.50;;
33802;SDS011;20110;53.120;5.786;2022-08-01T07:19:33;15.35;;;2.58;;
33802;SDS011;20110;53.120;5.786;2022-08-01T07:21:59;11.52;;;2.03;;
33802;SDS011;20110;53.120;5.786;2022-08-01T07:24:25;13.77;;;2.13;;
33802;SDS011;20110;53.120;5.786;2022-08-01T07:26:51;5.05;;;2.10;;
33802;SDS011;20110;53.120;5.786;2022-08-01T07:29:19;9.50;;;2.13;;
33802;SDS011;20110;53.120;5.786;2022-08-01T07:31:46;18.98;;;2.10;;
33802;SDS011;20110;53.120;5.786;2022-08-01T07:34:11;14.95;;;1.88;;
33802;SDS011;20110;53.120;5.786;2022-08-01T07:36:37;15.98;;;2.30;;
33802;SDS011;20110;53.120;5.786;2022-08-01T07:39:03;9.68;;;1.60;;
33802;SDS011;20110;53.120;5.786;2022-08-01T07:41:28;19.98;;;2.60;;
33802;SDS011;20110;53.120;5.786;2022-08-01T07:43:54;8.90;;;1.77;;
33802;SDS011;20110;53.120;5.786;2022-08-01T07:46:20;11.95;;;2.00;;
33802;SDS011;20110;53.120;5.786;2022-08-01T07:48:46;6.53;;;1.75;;
33802;SDS011;20110;53.120;5.786;2022-08-01T07:51:12;9.60;;;2.38;;
33802;SDS011;20110;53.120;5.786;2022-08-01T07:53:37;14.38;;;1.90;;
33802;SDS011;20110;53.120;5.786;2022-08-01T07:56:03;15.88;;;2.30;;
33802;SDS011;20110;53.120;5.786;2022-08-01T07:58:33;8.43;;;1.80;;
33802;SDS011;20110;53.120;5.786;2022-08-01T08:00:58;7.70;;;2.47;;
33802;SDS011;20110;53.120;5.786;2022-08-01T08:03:24;14.30;;;2.13;;
33802;SDS011;20110;53.120;5.786;2022-08-01T08:05:51;10.38;;;2.13;;
33802;SDS011;20110;53.120;5.786;2022-08-01T08:08:17;6.82;;;1.98;;
33802;SDS011;20110;53.120;5.786;2022-08-01T08:10:43;16.35;;;1.98;;
33802;SDS011;20110;53.120;5.786;2022-08-01T08:13:09;14.82;;;2.35;;
33802;SDS011;20110;53.120;5.786;2022-08-01T08:15:35;8.75;;;1.88;;
33802;SDS011;20110;53.120;5.786;2022-08-01T08:18:02;8.73;;;2.20;;
33802;SDS011;20110;53.120;5.786;2022-08-01T08:20:28;12.45;;;1.95;;
33802;SDS011;20110;53.120;5.786;2022-08-01T08:22:54;10.75;;;1.75;;
33802;SDS011;20110;53.120;5.786;2022-08-01T08:25:23;13.43;;;1.88;;
33802;SDS011;20110;53.120;5.786;2022-08-01T08:27:49;10.07;;;2.40;;
33802;SDS011;20110;53.120;5.786;2022-08-01T08:30:16;11.25;;;1.80;;
33802;SDS011;20110;53.120;5.786;2022-08-01T08:32:42;15.13;;;2.47;;
33802;SDS011;20110;53.120;5.786;2022-08-01T08:35:08;9.27;;;1.85;;
33802;SDS011;20110;53.120;5.786;2022-08-01T08:37:35;9.57;;;1.63;;
33802;SDS011;20110;53.120;5.786;2022-08-01T08:40:03;4.35;;;1.23;;
33802;SDS011;20110;53.120;5.786;2022-08-01T08:42:30;5.43;;;1.23;;
33802;SDS011;20110;53.120;5.786;2022-08-01T08:44:56;7.50;;;1.60;;
33802;SDS011;20110;53.120;5.786;2022-08-01T08:47:22;9.63;;;1.58;;
33802;SDS011;20110;53.120;5.786;2022-08-01T08:49:53;15.45;;;2.00;;
33802;SDS011;20110;53.120;5.786;2022-08-01T08:52:21;9.57;;;1.83;;
33802;SDS011;20110;53.120;5.786;2022-08-01T08:54:48;9.25;;;1.92;;
33802;SDS011;20110;53.120;5.786;2022-08-01T08:57:17;14.32;;;1.88;;
33802;SDS011;20110;53.120;5.786;2022-08-01T08:59:45;9.25;;;1.30;;
33802;SDS011;20110;53.120;5.786;2022-08-01T09:02:12;9.05;;;1.77;;
33802;SDS011;20110;53.120;5.786;2022-08-01T09:04:38;4.20;;;1.30;;
33802;SDS011;20110;53.120;5.786;2022-08-01T09:07:05;8.02;;;1.38;;
33802;SDS011;20110;53.120;5.786;2022-08-01T09:09:33;17.05;;;2.60;;
33802;SDS011;20110;53.120;5.786;2022-08-01T09:11:59;8.30;;;1.40;;
33802;SDS011;20110;53.120;5.786;2022-08-01T09:14:25;5.47;;;1.35;;
33802;SDS011;20110;53.120;5.786;2022-08-01T09:16:59;9.60;;;1.27;;
33802;SDS011;20110;53.120;5.786;2022-08-01T09:19:38;12.10;;;1.45;;
33802;SDS011;20110;53.120;5.786;2022-08-01T09:22:14;7.43;;;1.27;;
33802;SDS011;20110;53.120;5.786;2022-08-01T09:27:37;10.32;;;1.70;;
33802;SDS011;20110;53.120;5.786;2022-08-01T09:32:56;7.93;;;1.60;;
33802;SDS011;20110;53.120;5.786;2022-08-01T09:35:29;8.60;;;1.48;;
33802;SDS011;20110;53.120;5.786;2022-08-01T09:40:53;5.60;;;1.17;;
33802;SDS011;20110;53.120;5.786;2022-08-01T09:43:23;3.50;;;1.15;;
33802;SDS011;20110;53.120;5.786;2022-08-01T09:45:51;1.70;;;0.90;;
33802;SDS011;20110;53.120;5.786;2022-08-01T09:48:18;6.50;;;1.70;;
33802;SDS011;20110;53.120;5.786;2022-08-01T09:50:47;4.10;;;1.00;;
33802;SDS011;20110;53.120;5.786;2022-08-01T09:53:16;7.80;;;1.30;;
33802;SDS011;20110;53.120;5.786;2022-08-01T09:55:44;5.70;;;1.63;;
33802;SDS011;20110;53.120;5.786;2022-08-01T09:58:10;8.10;;;1.58;;
33802;SDS011;20110;53.120;5.786;2022-08-01T10:00:37;10.52;;;1.40;;
33802;SDS011;20110;53.120;5.786;2022-08-01T10:03:24;7.53;;;1.20;;
33802;SDS011;20110;53.120;5.786;2022-08-01T10:05:51;5.68;;;1.58;;
33802;SDS011;20110;53.120;5.786;2022-08-01T10:08:22;9.00;;;1.20;;
33802;SDS011;20110;53.120;5.786;2022-08-01T10:11:09;10.80;;;1.38;;
33802;SDS011;20110;53.120;5.786;2022-08-01T10:13:36;8.45;;;1.08;;
33802;SDS011;20110;53.120;5.786;2022-08-01T10:16:03;8.63;;;1.48;;
33802;SDS011;20110;53.120;5.786;2022-08-01T10:18:33;10.10;;;1.55;;
33802;SDS011;20110;53.120;5.786;2022-08-01T10:21:01;4.90;;;1.10;;
33802;SDS011;20110;53.120;5.786;2022-08-01T10:23:38;7.97;;;1.20;;
33802;SDS011;20110;53.120;5.786;2022-08-01T10:26:07;8.68;;;1.50;;
33802;SDS011;20110;53.120;5.786;2022-08-01T10:28:37;6.13;;;1.35;;
33802;SDS011;20110;53.120;5.786;2022-08-01T10:31:04;7.90;;;0.98;;
33802;SDS011;20110;53.120;5.786;2022-08-01T10:33:32;8.27;;;1.42;;
33802;SDS011;20110;53.120;5.786;2022-08-01T10:36:01;7.30;;;1.17;;
33802;SDS011;20110;53.120;5.786;2022-08-01T10:38:27;6.55;;;1.13;;
33802;SDS011;20110;53.120;5.786;2022-08-01T10:40:54;6.15;;;1.02;;
33802;SDS011;20110;53.120;5.786;2022-08-01T10:43:22;4.75;;;1.42;;
33802;SDS011;20110;53.120;5.786;2022-08-01T10:45:48;5.45;;;1.42;;
33802;SDS011;20110;53.120;5.786;2022-08-01T10:48:19;9.43;;;1.63;;
33802;SDS011;20110;53.120;5.786;2022-08-01T10:50:54;4.80;;;1.13;;
33802;SDS011;20110;53.120;5.786;2022-08-01T10:53:28;3.10;;;0.80;;
33802;SDS011;20110;53.120;5.786;2022-08-01T11:01:19;4.82;;;1.33;;
33802;SDS011;20110;53.120;5.786;2022-08-01T11:08:58;6.05;;;1.20;;
33802;SDS011;20110;53.120;5.786;2022-08-01T11:11:28;8.52;;;1.63;;
33802;SDS011;20110;53.120;5.786;2022-08-01T11:16:37;12.05;;;1.20;;
33802;SDS011;20110;53.120;5.786;2022-08-01T11:19:05;4.22;;;1.23;;
33802;SDS011;20110;53.120;5.786;2022-08-01T11:27:21;4.47;;;1.13;;
33802;SDS011;20110;53.120;5.786;2022-08-01T11:30:21;8.57;;;1.25;;
33802;SDS011;20110;53.120;5.786;2022-08-01T11:35:16;6.40;;;1.45;;
33802;SDS011;20110;53.120;5.786;2022-08-01T11:37:42;2.35;;;1.13;;
33802;SDS011;20110;53.120;5.786;2022-08-01T11:45:47;4.45;;;0.98;;
33802;SDS011;20110;53.120;5.786;2022-08-01T11:48:23;3.88;;;1.33;;
33802;SDS011;20110;53.120;5.786;2022-08-01T11:50:52;6.82;;;1.13;;
33802;SDS011;20110;53.120;5.786;2022-08-01T11:53:20;5.90;;;1.30;;
33802;SDS011;20110;53.120;5.786;2022-08-01T11:55:47;7.25;;;1.25;;
33802;SDS011;20110;53.120;5.786;2022-08-01T11:58:20;7.70;;;1.20;;
33802;SDS011;20110;53.120;5.786;2022-08-01T12:03:23;5.35;;;1.15;;
33802;SDS011;20110;53.120;5.786;2022-08-01T12:05:55;9.32;;;1.50;;
33802;SDS011;20110;53.120;5.786;2022-08-01T12:08:25;3.85;;;0.80;;
33802;SDS011;20110;53.120;5.786;2022-08-01T12:10:58;10.63;;;1.58;;
33802;SDS011;20110;53.120;5.786;2022-08-01T12:13:26;5.82;;;1.30;;
33802;SDS011;20110;53.120;5.786;2022-08-01T12:15:52;5.05;;;1.30;;
33802;SDS011;20110;53.120;5.786;2022-08-01T12:18:18;3.63;;;1.00;;
33802;SDS011;20110;53.120;5.786;2022-08-01T12:20:45;5.05;;;1.13;;
33802;SDS011;20110;53.120;5.786;2022-08-01T12:23:13;4.30;;;0.80;;
33802;SDS011;20110;53.120;5.786;2022-08-01T12:25:40;8.80;;;1.30;;
33802;SDS011;20110;53.120;5.786;2022-08-01T12:28:10;4.65;;;0.85;;
33802;SDS011;20110;53.120;5.786;2022-08-01T12:30:40;5.88;;;1.15;;
33802;SDS011;20110;53.120;5.786;2022-08-01T12:33:07;5.93;;;1.13;;
33802;SDS011;20110;53.120;5.786;2022-08-01T12:35:35;7.63;;;1.30;;
33802;SDS011;20110;53.120;5.786;2022-08-01T12:40:42;4.15;;;1.10;;
33802;SDS011;20110;53.120;5.786;2022-08-01T12:43:15;2.05;;;0.70;;
33802;SDS011;20110;53.120;5.786;2022-08-01T12:45:43;3.20;;;0.77;;
33802;SDS011;20110;53.120;5.786;2022-08-01T12:48:13;5.55;;;1.30;;
33802;SDS011;20110;53.120;5.786;2022-08-01T12:50:43;4.18;;;1.60;;
33802;SDS011;20110;53.120;5.786;2022-08-01T12:53:13;4.60;;;1.55;;
33802;SDS011;20110;53.120;5.786;2022-08-01T12:55:54;4.20;;;0.90;;
33802;SDS011;20110;53.120;5.786;2022-08-01T12:58:20;1.85;;;0.80;;
33802;SDS011;20110;53.120;5.786;2022-08-01T13:00:47;5.88;;;1.25;;
33802;SDS011;20110;53.120;5.786;2022-08-01T13:03:26;2.75;;;0.73;;
33802;SDS011;20110;53.120;5.786;2022-08-01T13:05:57;4.72;;;1.33;;
33802;SDS011;20110;53.120;5.786;2022-08-01T13:11:09;3.20;;;1.10;;
33802;SDS011;20110;53.120;5.786;2022-08-01T13:16:16;3.50;;;1.23;;
33802;SDS011;20110;53.120;5.786;2022-08-01T13:18:49;3.30;;;1.00;;
33802;SDS011;20110;53.120;5.786;2022-08-01T13:21:18;6.38;;;1.00;;
33802;SDS011;20110;53.120;5.786;2022-08-01T13:24:05;3.13;;;1.30;;
33802;SDS011;20110;53.120;5.786;2022-08-01T13:26:49;6.60;;;1.77;;
33802;SDS011;20110;53.120;5.786;2022-08-01T13:29:38;10.05;;;1.40;;
33802;SDS011;20110;53.120;5.786;2022-08-01T13:34:45;4.40;;;1.02;;
33802;SDS011;20110;53.120;5.786;2022-08-01T13:37:10;6.90;;;1.30;;
33802;SDS011;20110;53.120;5.786;2022-08-01T13:39:36;7.15;;;1.23;;
33802;SDS011;20110;53.120;5.786;2022-08-01T13:42:05;4.30;;;1.00;;
33802;SDS011;20110;53.120;5.786;2022-08-01T13:44:36;8.05;;;1.30;;
33802;SDS011;20110;53.120;5.786;2022-08-01T13:47:03;5.00;;;1.35;;
33802;SDS011;20110;53.120;5.786;2022-08-01T13:49:31;3.90;;;1.02;;
33802;SDS011;20110;53.120;5.786;2022-08-01T13:51:57;7.43;;;1.10;;
33802;SDS011;20110;53.120;5.786;2022-08-01T13:54:24;5.70;;;1.58;;
33802;SDS011;20110;53.120;5.786;2022-08-01T13:56:50;4.00;;;0.95;;
33802;SDS011;20110;53.120;5.786;2022-08-01T13:59:17;2.75;;;1.02;;
33802;SDS011;20110;53.120;5.786;2022-08-01T14:01:44;6.45;;;1.00;;
33802;SDS011;20110;53.120;5.786;2022-08-01T14:04:10;4.22;;;1.05;;
33802;SDS011;20110;53.120;5.786;2022-08-01T14:06:36;2.60;;;1.17;;
33802;SDS011;20110;53.120;5.786;2022-08-01T14:09:03;4.93;;;1.20;;
33802;SDS011;20110;53.120;5.786;2022-08-01T14:11:30;5.07;;;1.25;;
33802;SDS011;20110;53.120;5.786;2022-08-01T14:13:56;3.83;;;0.90;;
33802;SDS011;20110;53.120;5.786;2022-08-01T14:16:22;4.40;;;1.10;;
33802;SDS011;20110;53.120;5.786;2022-08-01T14:18:48;4.15;;;1.25;;
33802;SDS011;20110;53.120;5.786;2022-08-01T14:21:14;4.30;;;1.02;;
33802;SDS011;20110;53.120;5.786;2022-08-01T14:23:41;5.40;;;1.13;;
33802;SDS011;20110;53.120;5.786;2022-08-01T14:26:10;9.27;;;1.30;;
33802;SDS011;20110;53.120;5.786;2022-08-01T14:28:36;4.25;;;1.00;;
33802;SDS011;20110;53.120;5.786;2022-08-01T14:31:03;9.18;;;2.00;;
33802;SDS011;20110;53.120;5.786;2022-08-01T14:33:33;4.80;;;1.25;;
33802;SDS011;20110;53.120;5.786;2022-08-01T14:35:59;2.42;;;0.80;;
33802;SDS011;20110;53.120;5.786;2022-08-01T14:38:25;5.68;;;1.30;;
33802;SDS011;20110;53.120;5.786;2022-08-01T14:40:51;3.72;;;0.95;;
33802;SDS011;20110;53.120;5.786;2022-08-01T14:43:18;7.10;;;0.90;;
33802;SDS011;20110;53.120;5.786;2022-08-01T14:45:44;5.22;;;1.30;;
33802;SDS011;20110;53.120;5.786;2022-08-01T14:48:14;8.10;;;0.90;;
33802;SDS011;20110;53.120;5.786;2022-08-01T14:50:41;9.63;;;1.45;;
33802;SDS011;20110;53.120;5.786;2022-08-01T14:53:07;6.93;;;0.95;;
33802;SDS011;20110;53.120;5.786;2022-08-01T14:55:32;4.05;;;0.90;;
33802;SDS011;20110;53.120;5.786;2022-08-01T14:57:58;5.28;;;0.90;;
33802;SDS011;20110;53.120;5.786;2022-08-01T15:00:24;10.43;;;0.95;;
33802;SDS011;20110;53.120;5.786;2022-08-01T15:02:50;3.85;;;0.90;;
33802;SDS011;20110;53.120;5.786;2022-08-01T15:05:15;5.72;;;1.20;;
33802;SDS011;20110;53.120;5.786;2022-08-01T15:07:41;2.85;;;0.80;;
33802;SDS011;20110;53.120;5.786;2022-08-01T15:10:07;3.15;;;0.98;;
33802;SDS011;20110;53.120;5.786;2022-08-01T15:12:34;6.45;;;1.25;;
33802;SDS011;20110;53.120;5.786;2022-08-01T15:15:00;7.03;;;1.20;;
33802;SDS011;20110;53.120;5.786;2022-08-01T15:17:27;6.53;;;0.95;;
33802;SDS011;20110;53.120;5.786;2022-08-01T15:19:57;6.53;;;1.02;;
33802;SDS011;20110;53.120;5.786;2022-08-01T15:22:26;7.40;;;1.20;;
33802;SDS011;20110;53.120;5.786;2022-08-01T15:24:53;5.13;;;1.02;;
33802;SDS011;20110;53.120;5.786;2022-08-01T15:27:21;3.03;;;0.73;;
33802;SDS011;20110;53.120;5.786;2022-08-01T15:29:47;4.78;;;1.00;;
33802;SDS011;20110;53.120;5.786;2022-08-01T15:32:14;4.03;;;1.10;;
33802;SDS011;20110;53.120;5.786;2022-08-01T15:34:41;6.22;;;1.17;;
33802;SDS011;20110;53.120;5.786;2022-08-01T15:37:07;5.32;;;1.00;;
33802;SDS011;20110;53.120;5.786;2022-08-01T15:39:34;6.03;;;1.20;;
33802;SDS011;20110;53.120;5.786;2022-08-01T15:42:02;5.80;;;1.05;;
33802;SDS011;20110;53.120;5.786;2022-08-01T15:44:33;8.07;;;1.13;;
33802;SDS011;20110;53.120;5.786;2022-08-01T15:46:59;4.10;;;0.80;;
33802;SDS011;20110;53.120;5.786;2022-08-01T15:49:26;3.95;;;1.00;;
33802;SDS011;20110;53.120;5.786;2022-08-01T15:51:52;3.70;;;1.20;;